This is the latest recevied weather packets stored in our database for station/object UR7D-10. If no packets are shown the sender has not sent any weather packets the latest 10 day(s).
| Time | Temp. | Humidity | Pressure | Rain* | Wind** | Luminosity | Snow |
|---|---|---|---|---|---|---|---|
| 1777932347 | 13.33° C | 57% | 1016.6 hPa | 0 mm | - | - | - |
| 1777925137 | 16.67° C | 42% | 1016.2 hPa | 0 mm | - | - | - |
| 1777917932 | 22.22° C | 29% | 1016.1 hPa | 0 mm | - | - | - |
| 1777914328 | 25° C | 26% | 1016 hPa | 0 mm | - | - | - |
| 1777907121 | 25.56° C | 26% | 1016.4 hPa | 0 mm | - | - | - |
| 1777899916 | 24.44° C | 30% | 1017.8 hPa | 0 mm | - | - | - |
| 1777896312 | 23.89° C | 31% | 1018.2 hPa | 0 mm | - | - | - |
| 1777892707 | 22.78° C | 33% | 1018.9 hPa | 0 mm | - | - | - |
| 1777889104 | 22.22° C | 35% | 1019.3 hPa | 0 mm | - | - | - |
| 1777885502 | 21.11° C | 38% | 1020.3 hPa | 0 mm | - | - | - |
| 1777878292 | 15.56° C | 61% | 1020.3 hPa | 0 mm | - | - | - |
| 1777874692 | 10.56° C | 74% | 1020.6 hPa | 0 mm | - | - | - |
| 1777871085 | 7.78° C | 79% | 1020.5 hPa | 0 mm | - | - | - |
| 1777867483 | 7.22° C | 80% | 1020.1 hPa | 0 mm | - | - | - |
| 1777863878 | 8.33° C | 75% | 1019.6 hPa | 0 mm | - | - | - |
| 1777860275 | 7.78° C | 74% | 1019.4 hPa | 0 mm | - | - | - |
| 1777856672 | 9.44° C | 68% | 1019.7 hPa | 0 mm | - | - | - |
| 1777853068 | 10° C | 66% | 1019.7 hPa | 0 mm | - | - | - |
| 1777849466 | 12.22° C | 59% | 1019.6 hPa | 0 mm | - | - | - |
| 1777842258 | 13.89° C | 56% | 1019.1 hPa | 0 mm | - | - | - |
| 1777835051 | 17.78° C | 42% | 1019.2 hPa | 0 mm | - | - | - |
| 1777827844 | 21.11° C | 37% | 1018.6 hPa | 0 mm | - | - | - |
| 1777824242 | 21.67° C | 34% | 1018.6 hPa | 0 mm | - | - | - |
| 1777820638 | 21.67° C | 34% | 1019 hPa | 0 mm | - | - | - |
| 1777817035 | 21.11° C | 34% | 1019.7 hPa | 0 mm | - | - | - |
* Rain latest hour (hover to see other rain measurements)
** Current wind speed in m/s (hover to see current wind gust speed)